Gaines Landing, Arkansas
Current Conditions -  °F | °C
As of 9:53 AM on Monday 26 Jan 2015 (Local Time) from KGLH Reporting Station
Clear Clear  
Wind Chill:   Ceiling: Unl
Heat Index:   Visibility: 10mi
Dew Point:   Wind: 14mph
Humidity: 61%   Direction: 340°NNW
Pressure: 30.16"   Gusts: NA
Location:  33.3324°N, 91.3183°W
Report Text: KGLH 261553Z AUTO 34012KT 10SM CLR 08/01 A3016 RMK AO2 SLP221 T00830011
Loading
Personal Weather Stations






























Interactive Weather Map New forecast layout! Learn more

10-Day Weather Forecast

Advertisements
Track Severe Weather on mobile